KBML/BML METAR and TAF weather

Enter ICAO airport designator
Station Type Date Time Source
KBML METAR 2024/06/15 23:52 UTC NOAA

KBML 152352Z AUTO 33006G15KT 10SM CLR 14/02 A3008 RMK AO2 SLP188 T01440022 10189 20144 53015


Station Type Date Time Source
KBML Decoded METAR 2024/06/15 23:52 UTC NOAA

BERLIN MUNICIPAL AIRPORT, NH, United States (KBML) 44-35N 71-11W 345M
Jun 15, 2024 - 07:52 PM EDT / 2024.06.15 2352 UTC
Wind: from the NNW (330 degrees) at 7 MPH (6 KT) gusting to 17 MPH (15 KT):0
Visibility: 10 mile(s):0
Sky conditions: clear
Temperature: 57.9 F (14.4 C)
Dew Point: 36.0 F (2.2 C)
Relative Humidity: 43%
Pressure (altimeter): 30.08 in. Hg (1018 hPa)
Pressure tendency: 0.04 inches (1.5 hPa) higher than three hours ago
ob: KBML 152352Z AUTO 33006G15KT 10SM CLR 14/02 A3008 RMK AO2 SLP188 T01440022 10189 20144 53015
cycle: 0

Station Type Date Time Source
KBML TAF UTC NOAA

Error!

Example: see airport list